createdAt,value
2018-04-14T00:00:13.379Z,957.86
2018-04-14T00:01:13.400Z,957.89
2018-04-14T00:02:13.419Z,957.87
2018-04-14T00:03:13.439Z,957.92
2018-04-14T00:04:13.459Z,957.92
2018-04-14T00:05:13.529Z,957.88
2018-04-14T00:06:13.498Z,957.89
2018-04-14T00:07:13.520Z,957.89
2018-04-14T00:08:13.547Z,957.89
2018-04-14T00:09:13.561Z,957.87
2018-04-14T00:10:13.581Z,957.91
2018-04-14T00:11:13.626Z,957.87
2018-04-14T00:12:13.621Z,957.89
2018-04-14T00:13:13.645Z,957.89
2018-04-14T00:14:13.659Z,957.87
2018-04-14T00:15:13.679Z,957.86
2018-04-14T00:16:13.700Z,957.89
2018-04-14T00:17:13.726Z,957.88
2018-04-14T00:18:13.739Z,957.9
2018-04-14T00:19:13.759Z,957.93
2018-04-14T00:20:13.831Z,957.91
2018-04-14T00:21:13.804Z,957.95
2018-04-14T00:22:13.820Z,957.95
2018-04-14T00:23:13.841Z,957.96
2018-04-14T00:24:13.860Z,957.99
2018-04-14T00:25:13.880Z,958
2018-04-14T00:26:13.900Z,958.01
2018-04-14T00:27:13.920Z,958.02
2018-04-14T00:28:13.940Z,958.03
2018-04-14T00:29:13.960Z,958.08
2018-04-14T00:30:13.980Z,958.04
2018-04-14T00:31:14.001Z,958.05
2018-04-14T00:32:14.020Z,958.07
2018-04-14T00:33:14.040Z,958.07
2018-04-14T00:34:14.060Z,958.05
2018-04-14T00:35:14.130Z,958.1
2018-04-14T00:36:14.099Z,958.04
2018-04-14T00:37:14.120Z,958.07
2018-04-14T00:38:14.141Z,958.07
2018-04-14T00:39:14.159Z,958.06
2018-04-14T00:40:14.179Z,958.07
2018-04-14T00:41:14.200Z,958.06
2018-04-14T00:42:14.226Z,958.05
2018-04-14T00:43:14.239Z,958.06
2018-04-14T00:44:14.259Z,958.07
2018-04-14T00:45:14.280Z,958.06
2018-04-14T00:46:14.297Z,958.07
2018-04-14T00:47:14.318Z,958.02
2018-04-14T00:48:14.336Z,958.03
2018-04-14T00:49:14.358Z,958.02
2018-04-14T00:50:14.425Z,958.03
2018-04-14T00:51:14.395Z,958.03
2018-04-14T00:52:14.417Z,957.96
2018-04-14T00:53:14.435Z,957.99
2018-04-14T00:54:14.454Z,958.03
2018-04-14T00:55:14.475Z,958.04
2018-04-14T00:56:14.495Z,958.03
2018-04-14T00:57:14.516Z,958.02
2018-04-14T00:58:14.536Z,958.01
2018-04-14T00:59:14.554Z,958.03
2018-04-14T01:00:14.575Z,958
2018-04-14T01:01:14.619Z,958.03
2018-04-14T01:02:14.614Z,957.99
2018-04-14T01:03:14.634Z,957.98
2018-04-14T01:04:14.655Z,957.95
2018-04-14T01:05:14.723Z,958.01
2018-04-14T01:06:14.693Z,957.99
2018-04-14T01:07:14.712Z,957.97
2018-04-14T01:08:14.732Z,957.95
2018-04-14T01:09:14.752Z,957.95
2018-04-14T01:10:14.772Z,957.91
2018-04-14T01:11:14.791Z,957.91
2018-04-14T01:12:14.811Z,957.87
2018-04-14T01:13:14.831Z,957.9
2018-04-14T01:14:14.852Z,957.92
2018-04-14T01:15:14.869Z,957.9
2018-04-14T01:16:14.892Z,957.89
2018-04-14T01:17:14.910Z,957.91
2018-04-14T01:18:14.928Z,957.88
2018-04-14T01:19:14.947Z,957.92
2018-04-14T01:20:15.022Z,957.97
2018-04-14T01:21:14.985Z,957.92
2018-04-14T01:22:15.005Z,957.94
2018-04-14T01:23:15.027Z,957.94
2018-04-14T01:24:15.044Z,957.93
2018-04-14T01:25:15.063Z,957.97
2018-04-14T01:26:15.084Z,958.01
2018-04-14T01:27:15.107Z,957.94
2018-04-14T01:28:15.123Z,957.93
2018-04-14T01:29:15.140Z,957.98
2018-04-14T01:30:15.158Z,958.01
2018-04-14T01:31:15.178Z,957.97
2018-04-14T01:32:15.198Z,957.92
2018-04-14T01:33:15.219Z,957.92
2018-04-14T01:34:15.236Z,957.97
2018-04-14T01:35:15.456Z,957.93
2018-04-14T01:36:15.275Z,957.93
2018-04-14T01:37:15.295Z,957.94
2018-04-14T01:38:15.312Z,957.98
2018-04-14T01:39:15.333Z,957.97
2018-04-14T01:40:15.355Z,957.93
2018-04-14T01:41:15.372Z,957.92
2018-04-14T01:42:15.391Z,957.96
2018-04-14T01:43:15.411Z,957.93
2018-04-14T01:44:15.433Z,957.9
2018-04-14T01:45:15.449Z,957.94
2018-04-14T01:46:15.470Z,957.92
2018-04-14T01:47:15.488Z,957.91
2018-04-14T01:48:15.506Z,957.96
2018-04-14T01:49:15.526Z,957.92
2018-04-14T01:50:15.594Z,957.96
2018-04-14T01:51:15.564Z,957.92
2018-04-14T01:52:15.582Z,957.94
2018-04-14T01:53:15.602Z,957.98
2018-04-14T01:54:15.622Z,957.93
2018-04-14T01:55:15.641Z,957.97
2018-04-14T01:56:15.663Z,957.96
2018-04-14T01:57:15.678Z,958
2018-04-14T01:58:15.698Z,958
2018-04-14T01:59:15.717Z,957.98
2018-04-14T02:00:15.736Z,958.01
2018-04-14T02:01:15.756Z,958.04
2018-04-14T02:02:15.774Z,958.01
2018-04-14T02:03:15.793Z,958.03
2018-04-14T02:04:15.813Z,958.06
2018-04-14T02:05:15.882Z,958.06
2018-04-14T02:06:15.850Z,958.05
2018-04-14T02:07:15.869Z,958
2018-04-14T02:08:15.888Z,958.05
2018-04-14T02:09:15.908Z,958.03
2018-04-14T02:10:15.930Z,958.06
2018-04-14T02:11:15.947Z,958.03
2018-04-14T02:12:15.966Z,958.07
2018-04-14T02:13:15.984Z,958.11
2018-04-14T02:14:16.003Z,958.09
2018-04-14T02:15:16.022Z,958.13
2018-04-14T02:16:16.041Z,958.11
2018-04-14T02:17:16.062Z,958.19
2018-04-14T02:18:16.082Z,958.11
2018-04-14T02:19:16.100Z,958.14
2018-04-14T02:20:16.168Z,958.16
2018-04-14T02:21:16.137Z,958.12
2018-04-14T02:22:16.156Z,958.18
2018-04-14T02:23:16.176Z,958.15
2018-04-14T02:24:16.195Z,958.14
2018-04-14T02:25:16.213Z,958.17
2018-04-14T02:26:16.234Z,958.15
2018-04-14T02:27:16.252Z,958.17
2018-04-14T02:28:16.272Z,958.21
2018-04-14T02:29:16.289Z,958.2
2018-04-14T02:30:16.310Z,958.2
2018-04-14T02:31:16.329Z,958.21
2018-04-14T02:32:16.346Z,958.19
2018-04-14T02:33:16.370Z,958.2
2018-04-14T02:34:16.384Z,958.18
2018-04-14T02:35:16.459Z,958.19
2018-04-14T02:36:16.424Z,958.22
2018-04-14T02:37:16.443Z,958.21
2018-04-14T02:38:16.461Z,958.23
2018-04-14T02:39:16.487Z,958.23
2018-04-14T02:40:16.499Z,958.21
2018-04-14T02:41:16.517Z,958.19
2018-04-14T02:42:16.540Z,958.19
2018-04-14T02:43:16.561Z,958.16
2018-04-14T02:44:16.576Z,958.15
2018-04-14T02:45:16.601Z,958.23
2018-04-14T02:46:16.617Z,958.2
2018-04-14T02:47:16.638Z,958.23
2018-04-14T02:48:16.654Z,958.22
2018-04-14T02:49:16.679Z,958.18
2018-04-14T02:50:16.742Z,958.22
2018-04-14T02:51:16.709Z,958.23
2018-04-14T02:52:16.745Z,958.19
2018-04-14T02:53:16.746Z,958.19
2018-04-14T02:54:16.766Z,958.18
2018-04-14T02:55:16.785Z,958.16
2018-04-14T02:56:16.804Z,958.18
2018-04-14T02:57:16.823Z,958.16
2018-04-14T02:58:16.842Z,958.17
2018-04-14T02:59:16.861Z,958.17
2018-04-14T03:00:16.882Z,958.18
2018-04-14T03:01:16.900Z,958.18
2018-04-14T03:02:16.919Z,958.18
2018-04-14T03:03:16.940Z,958.12
2018-04-14T03:04:17.002Z,958.15
2018-04-14T03:05:17.024Z,958.15
2018-04-14T03:06:16.995Z,958.1
2018-04-14T03:07:17.014Z,958.14
2018-04-14T03:08:17.032Z,958.11
2018-04-14T03:09:17.050Z,958.13
2018-04-14T03:10:17.074Z,958.12
2018-04-14T03:11:17.090Z,958.12
2018-04-14T03:12:17.118Z,958.14
2018-04-14T03:13:17.137Z,958.16
2018-04-14T03:14:17.146Z,958.16
2018-04-14T03:15:17.164Z,958.14
2018-04-14T03:16:17.183Z,958.16
2018-04-14T03:17:17.203Z,958.15
2018-04-14T03:18:17.219Z,958.12
2018-04-14T03:19:17.238Z,958.15
2018-04-14T03:20:17.307Z,958.15
2018-04-14T03:21:17.276Z,958.13
2018-04-14T03:22:17.295Z,958.14
2018-04-14T03:23:17.313Z,958.14
2018-04-14T03:24:17.332Z,958.17
2018-04-14T03:25:17.351Z,958.15
2018-04-14T03:26:17.371Z,958.12
2018-04-14T03:27:17.388Z,958.18
2018-04-14T03:28:17.407Z,958.18
2018-04-14T03:29:17.433Z,958.16
2018-04-14T03:30:17.445Z,958.18
2018-04-14T03:31:17.548Z,958.19
2018-04-14T03:32:17.483Z,958.16
2018-04-14T03:33:17.502Z,958.19
2018-04-14T03:34:17.521Z,958.19
2018-04-14T03:35:17.589Z,958.25
2018-04-14T03:36:17.557Z,958.2
2018-04-14T03:37:17.580Z,958.24
2018-04-14T03:38:17.595Z,958.24
2018-04-14T03:39:17.613Z,958.24
2018-04-14T03:40:17.633Z,958.23
2018-04-14T03:41:17.651Z,958.22
2018-04-14T03:42:17.668Z,958.19
2018-04-14T03:43:17.688Z,958.2
2018-04-14T03:44:17.707Z,958.26
2018-04-14T03:45:17.726Z,958.23
2018-04-14T03:46:17.746Z,958.22
2018-04-14T03:47:17.764Z,958.23
2018-04-14T03:48:17.783Z,958.3
2018-04-14T03:49:17.800Z,958.33
2018-04-14T03:50:17.870Z,958.24
2018-04-14T03:51:17.838Z,958.25
2018-04-14T03:52:17.858Z,958.28
2018-04-14T03:53:17.875Z,958.27
2018-04-14T03:54:17.894Z,958.33
2018-04-14T03:55:17.913Z,958.3
2018-04-14T03:56:17.930Z,958.23
2018-04-14T03:57:17.950Z,958.28
2018-04-14T03:58:17.969Z,958.37
2018-04-14T03:59:17.988Z,958.34
2018-04-14T04:00:18.010Z,958.37
2018-04-14T04:01:18.029Z,958.39
2018-04-14T04:02:18.045Z,958.43
2018-04-14T04:03:18.062Z,958.43
2018-04-14T04:04:18.082Z,958.46
2018-04-14T04:05:18.152Z,958.45
2018-04-14T04:06:18.121Z,958.45
2018-04-14T04:07:18.136Z,958.47
2018-04-14T04:08:18.155Z,958.47
2018-04-14T04:09:18.175Z,958.51
2018-04-14T04:10:18.193Z,958.46
2018-04-14T04:11:18.209Z,958.51
2018-04-14T04:12:18.226Z,958.5
2018-04-14T04:13:18.251Z,958.46
2018-04-14T04:14:18.266Z,958.49
2018-04-14T04:15:18.281Z,958.48
2018-04-14T04:16:18.303Z,958.48
2018-04-14T04:17:18.322Z,958.51
2018-04-14T04:18:18.343Z,958.51
2018-04-14T04:19:18.358Z,958.52
2018-04-14T04:20:18.427Z,958.51
2018-04-14T04:21:18.397Z,958.56
2018-04-14T04:22:18.412Z,958.56
2018-04-14T04:23:18.434Z,958.54
2018-04-14T04:24:18.453Z,958.56
2018-04-14T04:25:18.471Z,958.54
2018-04-14T04:26:18.490Z,958.54
2018-04-14T04:27:18.509Z,958.56
2018-04-14T04:28:18.529Z,958.56
2018-04-14T04:29:18.545Z,958.54
2018-04-14T04:30:18.563Z,958.61
2018-04-14T04:31:18.583Z,958.63
2018-04-14T04:32:18.602Z,958.6
2018-04-14T04:33:18.622Z,958.68
2018-04-14T04:34:18.637Z,958.7
2018-04-14T04:35:18.707Z,958.71
2018-04-14T04:36:18.674Z,958.7
2018-04-14T04:37:18.698Z,958.74
2018-04-14T04:38:18.713Z,958.68
2018-04-14T04:39:18.730Z,958.68
2018-04-14T04:40:18.748Z,958.7
2018-04-14T04:41:18.767Z,958.73
2018-04-14T04:42:18.785Z,958.71
2018-04-14T04:43:18.805Z,958.69
2018-04-14T04:44:18.821Z,958.71
2018-04-14T04:45:18.839Z,958.71
2018-04-14T04:46:18.861Z,958.75
2018-04-14T04:47:18.878Z,958.71
2018-04-14T04:48:18.896Z,958.7
2018-04-14T04:49:18.914Z,958.73
2018-04-14T04:50:18.983Z,958.71
2018-04-14T04:51:18.950Z,958.71
2018-04-14T04:52:18.970Z,958.75
2018-04-14T04:53:18.987Z,958.7
2018-04-14T04:54:19.009Z,958.77
2018-04-14T04:55:19.025Z,958.77
2018-04-14T04:56:19.043Z,958.78
2018-04-14T04:57:19.061Z,958.81
2018-04-14T04:58:19.080Z,958.81
2018-04-14T04:59:19.098Z,958.85
2018-04-14T05:00:19.117Z,958.85
2018-04-14T05:01:19.145Z,958.84
2018-04-14T05:02:19.154Z,958.89
2018-04-14T05:03:19.171Z,958.88
2018-04-14T05:04:19.192Z,958.89
2018-04-14T05:05:19.260Z,958.91
2018-04-14T05:06:19.228Z,958.93
2018-04-14T05:07:19.245Z,958.94
2018-04-14T05:08:19.266Z,958.96
2018-04-14T05:09:19.285Z,958.97
2018-04-14T05:10:19.302Z,959
2018-04-14T05:11:19.322Z,959.02
2018-04-14T05:12:19.341Z,959.04
2018-04-14T05:13:19.389Z,959.05
2018-04-14T05:14:19.377Z,959.04
2018-04-14T05:15:19.396Z,959.04
2018-04-14T05:16:19.429Z,959.05
2018-04-14T05:17:19.433Z,959.1
2018-04-14T05:18:19.453Z,959.05
2018-04-14T05:19:19.473Z,959.08
2018-04-14T05:20:19.541Z,959.11
2018-04-14T05:21:19.513Z,959.15
2018-04-14T05:22:19.529Z,959.17
2018-04-14T05:23:19.549Z,959.17
2018-04-14T05:24:19.565Z,959.14
2018-04-14T05:25:19.634Z,959.14
2018-04-14T05:26:19.607Z,959.13
2018-04-14T05:27:19.623Z,959.11
2018-04-14T05:28:19.645Z,959.17
2018-04-14T05:29:19.660Z,959.17
2018-04-14T05:30:19.680Z,959.19
2018-04-14T05:31:19.712Z,959.22
2018-04-14T05:32:19.717Z,959.24
2018-04-14T05:33:19.736Z,959.23
2018-04-14T05:34:19.755Z,959.29
2018-04-14T05:35:19.824Z,959.27
2018-04-14T05:36:19.792Z,959.28
2018-04-14T05:37:19.815Z,959.28
2018-04-14T05:38:19.832Z,959.29
2018-04-14T05:39:19.850Z,959.3
2018-04-14T05:40:19.868Z,959.34
2018-04-14T05:41:19.892Z,959.32
2018-04-14T05:42:19.905Z,959.3
2018-04-14T05:43:19.926Z,959.29
2018-04-14T05:44:19.948Z,959.3
2018-04-14T05:45:19.963Z,959.3
2018-04-14T05:46:19.996Z,959.31
2018-04-14T05:47:20.001Z,959.35
2018-04-14T05:48:20.021Z,959.34
2018-04-14T05:49:20.041Z,959.33
2018-04-14T05:50:20.108Z,959.36
2018-04-14T05:51:20.079Z,959.35
2018-04-14T05:52:20.098Z,959.38
2018-04-14T05:53:20.115Z,959.35
2018-04-14T05:54:20.135Z,959.37
2018-04-14T05:55:20.156Z,959.38
2018-04-14T05:56:20.174Z,959.38
2018-04-14T05:57:20.192Z,959.36
2018-04-14T05:58:20.214Z,959.35
2018-04-14T05:59:20.230Z,959.33
2018-04-14T06:00:20.250Z,959.34
2018-04-14T06:01:20.277Z,959.35
2018-04-14T06:02:20.288Z,959.37
2018-04-14T06:03:20.307Z,959.36
2018-04-14T06:04:20.325Z,959.43
2018-04-14T06:05:20.396Z,959.44
2018-04-14T06:06:20.365Z,959.41
2018-04-14T06:07:20.384Z,959.45
2018-04-14T06:08:20.403Z,959.47
2018-04-14T06:09:20.424Z,959.49
2018-04-14T06:10:20.442Z,959.47
2018-04-14T06:11:20.466Z,959.54
2018-04-14T06:12:20.480Z,959.58
2018-04-14T06:13:20.501Z,959.56
2018-04-14T06:14:20.519Z,959.57
2018-04-14T06:15:20.540Z,959.6
2018-04-14T06:16:20.565Z,959.63
2018-04-14T06:17:20.579Z,959.58
2018-04-14T06:18:20.599Z,959.63
2018-04-14T06:19:20.619Z,959.6
2018-04-14T06:20:20.688Z,959.63
2018-04-14T06:21:20.659Z,959.63
2018-04-14T06:22:20.697Z,959.62
2018-04-14T06:23:20.696Z,959.6
2018-04-14T06:24:20.718Z,959.64
2018-04-14T06:25:20.737Z,959.63
2018-04-14T06:26:20.756Z,959.67
2018-04-14T06:27:20.776Z,959.66
2018-04-14T06:28:20.797Z,959.65
2018-04-14T06:29:20.817Z,959.64
2018-04-14T06:30:20.836Z,959.65
2018-04-14T06:31:20.856Z,959.69
2018-04-14T06:32:20.881Z,959.73
2018-04-14T06:33:20.896Z,959.77
2018-04-14T06:34:20.917Z,959.76
2018-04-14T06:35:21.021Z,959.8
2018-04-14T06:36:20.957Z,959.85
2018-04-14T06:37:20.976Z,959.82
2018-04-14T06:38:20.996Z,959.85
2018-04-14T06:39:21.017Z,959.9
2018-04-14T06:40:21.036Z,959.93
2018-04-14T06:41:21.056Z,959.91
2018-04-14T06:42:21.078Z,959.94
2018-04-14T06:43:21.098Z,959.99
2018-04-14T06:44:21.118Z,959.95
2018-04-14T06:45:21.236Z,959.95
2018-04-14T06:46:21.181Z,959.96
2018-04-14T06:47:21.178Z,959.96
2018-04-14T06:48:21.202Z,959.97
2018-04-14T06:49:21.218Z,959.94
2018-04-14T06:50:21.288Z,959.94
2018-04-14T06:51:21.257Z,959.91
2018-04-14T06:52:21.277Z,959.93
2018-04-14T06:53:21.298Z,959.92
2018-04-14T06:54:21.320Z,959.96
2018-04-14T06:55:21.340Z,959.92
2018-04-14T06:56:21.361Z,959.94
2018-04-14T06:57:21.385Z,959.94
2018-04-14T06:58:21.401Z,959.95
2018-04-14T06:59:21.420Z,959.96
2018-04-14T07:00:21.442Z,959.95
2018-04-14T07:01:21.464Z,959.94
2018-04-14T07:02:21.484Z,959.96
2018-04-14T07:03:21.504Z,959.92
2018-04-14T07:04:21.563Z,959.91
2018-04-14T07:05:21.596Z,959.97
2018-04-14T07:06:21.564Z,959.97
2018-04-14T07:07:21.587Z,959.97
2018-04-14T07:08:21.608Z,960.01
2018-04-14T07:09:21.632Z,960.03
2018-04-14T07:10:21.648Z,959.98
2018-04-14T07:11:21.670Z,960.04
2018-04-14T07:12:21.689Z,960.06
2018-04-14T07:13:21.710Z,960.02
2018-04-14T07:14:21.737Z,960.06
2018-04-14T07:15:21.750Z,960.07
2018-04-14T07:16:21.771Z,960.08
2018-04-14T07:17:21.794Z,960.06
2018-04-14T07:18:21.815Z,960.06
2018-04-14T07:19:21.836Z,960.12
2018-04-14T07:20:21.907Z,960.09
2018-04-14T07:21:21.879Z,960.11
2018-04-14T07:22:21.908Z,960.13
2018-04-14T07:23:21.920Z,960.16
2018-04-14T07:24:21.941Z,960.12
2018-04-14T07:25:21.962Z,960.12
2018-04-14T07:26:21.982Z,960.14
2018-04-14T07:27:22.007Z,960.15
2018-04-14T07:28:22.026Z,960.14
2018-04-14T07:29:22.148Z,960.17
2018-04-14T07:30:22.069Z,960.2
2018-04-14T07:31:22.091Z,960.21
2018-04-14T07:32:22.186Z,960.24
2018-04-14T07:33:22.134Z,960.26
2018-04-14T07:34:22.155Z,960.27
2018-04-14T07:35:22.178Z,960.29
2018-04-14T07:36:22.199Z,960.31
2018-04-14T07:37:22.224Z,960.28
2018-04-14T07:38:22.242Z,960.3
2018-04-14T07:39:22.314Z,960.31
2018-04-14T07:40:22.285Z,960.32
2018-04-14T07:41:22.309Z,960.29
2018-04-14T07:42:22.331Z,960.29
2018-04-14T07:43:22.353Z,960.31
2018-04-14T07:44:22.375Z,960.3
2018-04-14T07:45:22.397Z,960.32
2018-04-14T07:46:22.418Z,960.31
2018-04-14T07:47:22.443Z,960.3
2018-04-14T07:48:22.461Z,960.35
2018-04-14T07:49:22.486Z,960.26
2018-04-14T07:50:22.505Z,960.26
2018-04-14T07:51:22.529Z,960.25
2018-04-14T07:52:22.550Z,960.28
2018-04-14T07:53:22.572Z,960.28
2018-04-14T07:54:22.645Z,960.27
2018-04-14T07:55:22.633Z,960.27
2018-04-14T07:56:22.692Z,960.27
2018-04-14T07:57:22.667Z,960.31
2018-04-14T07:58:22.684Z,960.32
2018-04-14T07:59:22.713Z,960.29
2018-04-14T08:00:22.731Z,960.32
2018-04-14T08:01:22.759Z,960.33
2018-04-14T08:02:22.776Z,960.32
2018-04-14T08:03:22.800Z,960.38
2018-04-14T08:04:22.824Z,960.36
2018-04-14T08:05:22.843Z,960.41
2018-04-14T08:06:22.865Z,960.39
2018-04-14T08:07:22.889Z,960.41
2018-04-14T08:08:22.911Z,960.43
2018-04-14T08:09:23.084Z,960.42
2018-04-14T08:10:22.957Z,960.42
2018-04-14T08:11:22.980Z,960.45
2018-04-14T08:12:23.003Z,960.49
2018-04-14T08:13:23.028Z,960.46
2018-04-14T08:14:23.047Z,960.49
2018-04-14T08:15:23.071Z,960.47
2018-04-14T08:16:23.093Z,960.48
2018-04-14T08:17:23.117Z,960.52
2018-04-14T08:18:23.196Z,960.52
2018-04-14T08:19:23.165Z,960.52
2018-04-14T08:20:23.185Z,960.53
2018-04-14T08:21:23.210Z,960.53
2018-04-14T08:22:23.233Z,960.51
2018-04-14T08:23:23.254Z,960.54
2018-04-14T08:24:23.329Z,960.54
2018-04-14T08:25:23.303Z,960.57
2018-04-14T08:26:23.329Z,960.55
2018-04-14T08:27:23.352Z,960.57
2018-04-14T08:28:23.376Z,960.56
2018-04-14T08:29:23.403Z,960.59
2018-04-14T08:30:23.424Z,960.54
2018-04-14T08:31:23.447Z,960.55
2018-04-14T08:32:23.471Z,960.55
2018-04-14T08:33:23.496Z,960.56
2018-04-14T08:34:23.622Z,960.59
2018-04-14T08:35:23.541Z,960.59
2018-04-14T08:36:23.565Z,960.56
2018-04-14T08:37:23.646Z,960.6
2018-04-14T08:38:23.613Z,960.59
2018-04-14T08:39:23.685Z,960.58
2018-04-14T08:40:23.660Z,960.59
2018-04-14T08:41:23.772Z,960.6
2018-04-14T08:42:23.708Z,960.65
2018-04-14T08:43:23.732Z,960.66
2018-04-14T08:44:23.756Z,960.67
2018-04-14T08:45:23.779Z,960.65
2018-04-14T08:46:23.804Z,960.64
2018-04-14T08:47:23.827Z,960.66
2018-04-14T08:48:23.850Z,960.64
2018-04-14T08:49:23.873Z,960.64
2018-04-14T08:50:23.899Z,960.63
2018-04-14T08:51:23.924Z,960.65
2018-04-14T08:52:23.946Z,960.64
2018-04-14T08:53:23.972Z,960.59
2018-04-14T08:54:24.043Z,960.59
2018-04-14T08:55:24.023Z,960.58
2018-04-14T08:56:24.055Z,960.58
2018-04-14T08:57:24.068Z,960.57
2018-04-14T08:58:24.090Z,960.54
2018-04-14T08:59:24.115Z,960.57
2018-04-14T09:00:24.139Z,960.57
2018-04-14T09:01:24.165Z,960.57
2018-04-14T09:02:24.195Z,960.56
2018-04-14T09:03:24.214Z,960.58
2018-04-14T09:04:24.238Z,960.56
2018-04-14T09:05:24.263Z,960.59
2018-04-14T09:06:24.292Z,960.56
2018-04-14T09:07:24.311Z,960.6
2018-04-14T09:08:24.336Z,960.55
2018-04-14T09:09:24.411Z,960.56
2018-04-14T09:10:24.386Z,960.54
2018-04-14T09:11:24.409Z,960.56
2018-04-14T09:12:24.438Z,960.56
2018-04-14T09:13:24.460Z,960.53
2018-04-14T09:14:24.483Z,960.51
2018-04-14T09:15:24.511Z,960.5
2018-04-14T09:16:24.534Z,960.49
2018-04-14T09:17:24.560Z,960.49
2018-04-14T09:18:24.585Z,960.51
2018-04-14T09:19:24.609Z,960.54
2018-04-14T09:20:24.635Z,960.49
2018-04-14T09:21:24.662Z,960.52
2018-04-14T09:22:24.685Z,960.55
2018-04-14T09:23:24.714Z,960.53
2018-04-14T09:24:24.803Z,960.52
2018-04-14T09:25:24.763Z,960.5
2018-04-14T09:26:24.831Z,960.5
2018-04-14T09:27:24.815Z,960.54
2018-04-14T09:28:24.843Z,960.51
2018-04-14T09:29:24.869Z,960.48
2018-04-14T09:30:24.895Z,960.53
2018-04-14T09:31:24.922Z,960.42
2018-04-14T09:32:24.950Z,960.47
2018-04-14T09:33:24.976Z,960.46
2018-04-14T09:34:25.108Z,960.46
2018-04-14T09:35:25.032Z,960.47
2018-04-14T09:36:25.059Z,960.44
2018-04-14T09:37:25.086Z,960.42
2018-04-14T09:38:25.118Z,960.41
2018-04-14T09:39:25.224Z,960.44
2018-04-14T09:40:25.171Z,960.39
2018-04-14T09:41:25.199Z,960.43
2018-04-14T09:42:25.229Z,960.39
2018-04-14T09:43:25.258Z,960.4
2018-04-14T09:44:25.288Z,960.37
2018-04-14T09:45:25.314Z,960.35
2018-04-14T09:46:25.342Z,960.43
2018-04-14T09:47:25.372Z,960.38
2018-04-14T09:48:25.401Z,960.37
2018-04-14T09:49:25.458Z,960.41
2018-04-14T09:50:25.464Z,960.39
2018-04-14T09:51:25.487Z,960.38
2018-04-14T09:52:25.517Z,960.37
2018-04-14T09:53:25.548Z,960.37
2018-04-14T09:54:25.628Z,960.35
2018-04-14T09:55:25.606Z,960.4
2018-04-14T09:56:25.684Z,960.35
2018-04-14T09:57:25.667Z,960.39
2018-04-14T09:58:25.696Z,960.37
2018-04-14T09:59:25.726Z,960.38
2018-04-14T10:00:25.758Z,960.35
2018-04-14T10:01:25.788Z,960.36
2018-04-14T10:02:25.818Z,960.33
2018-04-14T10:03:25.847Z,960.34
2018-04-14T10:04:25.905Z,960.29
2018-04-14T10:05:25.909Z,960.28
2018-04-14T10:06:25.947Z,960.28
2018-04-14T10:07:25.972Z,960.3
2018-04-14T10:08:26.002Z,960.32
2018-04-14T10:09:26.032Z,960.33
2018-04-14T10:10:26.090Z,960.29
2018-04-14T10:11:26.144Z,960.32
2018-04-14T10:12:26.127Z,960.31
2018-04-14T10:13:26.156Z,960.35
2018-04-14T10:14:26.186Z,960.38
2018-04-14T10:15:26.219Z,960.33
2018-04-14T10:16:26.299Z,960.39
2018-04-14T10:17:26.281Z,960.38
2018-04-14T10:18:26.312Z,960.34
2018-04-14T10:19:26.344Z,960.35
2018-04-14T10:20:26.375Z,960.36
2018-04-14T10:21:26.405Z,960.36
2018-04-14T10:22:26.438Z,960.35
2018-04-14T10:23:26.469Z,960.37
2018-04-14T10:24:26.500Z,960.35
2018-04-14T10:25:26.534Z,960.3
2018-04-14T10:26:26.564Z,960.29
2018-04-14T10:27:26.600Z,960.29
2018-04-14T10:28:26.626Z,960.28
2018-04-14T10:29:26.659Z,960.28
2018-04-14T10:30:26.691Z,960.27
2018-04-14T10:31:26.872Z,960.36
2018-04-14T10:32:26.754Z,960.31
2018-04-14T10:33:26.788Z,960.31
2018-04-14T10:34:26.836Z,960.28
2018-04-14T10:35:26.850Z,960.34
2018-04-14T10:36:26.882Z,960.3
2018-04-14T10:37:26.914Z,960.31
2018-04-14T10:38:26.946Z,960.26
2018-04-14T10:39:26.978Z,960.27
2018-04-14T10:40:27.011Z,960.31
2018-04-14T10:41:27.043Z,960.24
2018-04-14T10:42:27.083Z,960.26
2018-04-14T10:43:27.106Z,960.35
2018-04-14T10:44:27.139Z,960.29
2018-04-14T10:45:27.170Z,960.28
2018-04-14T10:46:27.252Z,960.25
2018-04-14T10:47:27.235Z,960.27
2018-04-14T10:48:27.271Z,960.31
2018-04-14T10:49:27.297Z,960.3
2018-04-14T10:50:27.332Z,960.31
2018-04-14T10:51:27.362Z,960.27
2018-04-14T10:52:27.397Z,960.27
2018-04-14T10:53:27.431Z,960.33
2018-04-14T10:54:27.465Z,960.26
2018-04-14T10:55:27.499Z,960.24
2018-04-14T10:56:27.531Z,960.28
2018-04-14T10:57:27.562Z,960.32
2018-04-14T10:58:27.594Z,960.26
2018-04-14T10:59:27.639Z,960.26
2018-04-14T11:00:27.661Z,960.29
2018-04-14T11:01:27.745Z,960.29
2018-04-14T11:02:27.732Z,960.29
2018-04-14T11:03:27.763Z,960.29
2018-04-14T11:04:27.799Z,960.22
2018-04-14T11:05:27.841Z,960.25
2018-04-14T11:06:27.864Z,960.23
2018-04-14T11:07:27.896Z,960.22
2018-04-14T11:08:27.930Z,960.27
2018-04-14T11:09:27.960Z,960.24
2018-04-14T11:10:28.003Z,960.21
2018-04-14T11:11:28.035Z,960.23
2018-04-14T11:12:28.063Z,960.21
2018-04-14T11:13:28.103Z,960.26
2018-04-14T11:14:28.129Z,960.25
2018-04-14T11:15:28.164Z,960.28
2018-04-14T11:16:28.254Z,960.3
2018-04-14T11:17:28.233Z,960.26
2018-04-14T11:18:28.269Z,960.25
2018-04-14T11:19:28.302Z,960.28
2018-04-14T11:20:28.357Z,960.28
2018-04-14T11:21:28.470Z,960.24
2018-04-14T11:22:28.404Z,960.26
2018-04-14T11:23:28.440Z,960.29
2018-04-14T11:24:28.472Z,960.3
2018-04-14T11:25:28.508Z,960.27
2018-04-14T11:26:28.541Z,960.27
2018-04-14T11:27:28.577Z,960.29
2018-04-14T11:28:28.615Z,960.28
2018-04-14T11:29:28.646Z,960.3
2018-04-14T11:30:28.679Z,960.27
2018-04-14T11:31:28.811Z,960.27
2018-04-14T11:32:28.749Z,960.24
2018-04-14T11:33:28.782Z,960.25
2018-04-14T11:34:28.818Z,960.26
2018-04-14T11:35:28.851Z,960.24
2018-04-14T11:36:28.887Z,960.26
2018-04-14T11:37:28.921Z,960.24
2018-04-14T11:38:28.957Z,960.3
2018-04-14T11:39:28.992Z,960.21
2018-04-14T11:40:29.026Z,960.2
2018-04-14T11:41:29.063Z,960.15
2018-04-14T11:42:29.097Z,960.15
2018-04-14T11:43:29.175Z,960.12
2018-04-14T11:44:29.166Z,960.13
2018-04-14T11:45:29.201Z,960.2
2018-04-14T11:46:29.538Z,960.16
2018-04-14T11:47:29.271Z,960.14
2018-04-14T11:48:29.306Z,960.16
2018-04-14T11:49:29.342Z,960.13
2018-04-14T11:50:29.377Z,960.1
2018-04-14T11:51:29.412Z,960.05
2018-04-14T11:52:29.446Z,960.07
2018-04-14T11:53:29.484Z,960.06
2018-04-14T11:54:29.519Z,960.12
2018-04-14T11:55:29.556Z,960.14
2018-04-14T11:56:29.590Z,960.13
2018-04-14T11:57:29.626Z,960.13
2018-04-14T11:58:29.665Z,960.1
2018-04-14T11:59:29.700Z,960.06
2018-04-14T12:00:29.731Z,960.08
2018-04-14T12:01:29.819Z,960.09
2018-04-14T12:02:29.802Z,960.09
2018-04-14T12:03:29.839Z,960.12
2018-04-14T12:04:29.877Z,960.08
2018-04-14T12:05:29.911Z,960.12
2018-04-14T12:06:29.945Z,960.13
2018-04-14T12:07:29.989Z,960.14
2018-04-14T12:08:30.027Z,960.18
2018-04-14T12:09:30.062Z,960.18
2018-04-14T12:10:30.090Z,960.17
2018-04-14T12:11:30.127Z,960.11
2018-04-14T12:12:30.163Z,960.1
2018-04-14T12:13:30.200Z,960.05
2018-04-14T12:14:30.236Z,960.11
2018-04-14T12:15:30.273Z,960.11
2018-04-14T12:16:30.360Z,960.14
2018-04-14T12:17:30.344Z,960.06
2018-04-14T12:18:30.381Z,960.08
2018-04-14T12:19:30.417Z,960.09
2018-04-14T12:20:30.454Z,960.02
2018-04-14T12:21:30.498Z,960.07
2018-04-14T12:22:30.525Z,960.13
2018-04-14T12:23:30.563Z,960.11
2018-04-14T12:24:30.598Z,960.13
2018-04-14T12:25:30.635Z,960.16
2018-04-14T12:26:30.672Z,960.15
2018-04-14T12:27:30.710Z,960.17
2018-04-14T12:28:30.749Z,960.14
2018-04-14T12:29:30.782Z,960.08
2018-04-14T12:30:30.818Z,960.12